createdAt,value
2023-04-18T00:00:29.437Z,96228
2023-04-18T00:01:29.384Z,96229
2023-04-18T00:02:29.631Z,96228
2023-04-18T00:04:29.487Z,96227
2023-04-18T00:05:29.429Z,96224
2023-04-18T00:06:29.438Z,96216
2023-04-18T00:07:29.377Z,96216
2023-04-18T00:08:29.429Z,96215
2023-04-18T00:09:29.452Z,96215
2023-04-18T00:11:29.431Z,96218
2023-04-18T00:12:29.401Z,96218
2023-04-18T00:13:29.429Z,96216
2023-04-18T00:14:29.390Z,96216
2023-04-18T00:15:29.432Z,96217
2023-04-18T00:16:29.467Z,96213
2023-04-18T00:17:29.449Z,96213
2023-04-18T00:18:29.407Z,96212
2023-04-18T00:20:29.423Z,96211
2023-04-18T00:21:29.468Z,96208
2023-04-18T00:22:29.437Z,96212
2023-04-18T00:23:29.426Z,96209
2023-04-18T00:24:29.458Z,96207
2023-04-18T00:25:29.469Z,96207
2023-04-18T00:26:29.458Z,96206
2023-04-18T00:27:29.472Z,96206
2023-04-18T00:28:29.447Z,96206
2023-04-18T00:29:29.460Z,96207
2023-04-18T00:30:29.470Z,96207
2023-04-18T00:31:29.534Z,96202
2023-04-18T00:33:29.481Z,96200
2023-04-18T00:34:29.511Z,96199
2023-04-18T00:35:29.484Z,96197
2023-04-18T00:36:29.464Z,96198
2023-04-18T00:37:29.514Z,96199
2023-04-18T00:38:29.449Z,96201
2023-04-18T00:39:29.509Z,96200
2023-04-18T00:40:29.505Z,96199
2023-04-18T00:41:29.476Z,96199
2023-04-18T00:42:29.507Z,96201
2023-04-18T00:43:29.533Z,96201
2023-04-18T00:45:29.516Z,96203
2023-04-18T00:46:29.584Z,96203
2023-04-18T00:48:29.526Z,96201
2023-04-18T00:49:29.522Z,96201
2023-04-18T00:50:29.559Z,96197
2023-04-18T00:51:29.510Z,96198
2023-04-18T00:52:29.524Z,96203
2023-04-18T00:53:29.550Z,96201
2023-04-18T00:54:29.506Z,96201
2023-04-18T00:55:29.550Z,96206
2023-04-18T00:56:29.490Z,96203
2023-04-18T00:57:29.509Z,96201
2023-04-18T00:58:29.551Z,96202
2023-04-18T00:59:29.512Z,96202
2023-04-18T01:00:29.547Z,96196
2023-04-18T01:02:29.645Z,96198
2023-04-18T01:03:29.868Z,96198
2023-04-18T01:04:29.678Z,96198
2023-04-18T01:05:29.552Z,96192
2023-04-18T01:06:29.578Z,96194
2023-04-18T01:07:29.544Z,96194
2023-04-18T01:08:29.602Z,96194
2023-04-18T01:09:29.599Z,96194
2023-04-18T01:10:29.553Z,96194
2023-04-18T01:11:29.588Z,96192
2023-04-18T01:12:29.581Z,96192
2023-04-18T01:13:29.578Z,96188
2023-04-18T01:14:29.600Z,96190
2023-04-18T01:15:29.578Z,96190
2023-04-18T01:16:29.686Z,96185
2023-04-18T01:18:29.567Z,96187
2023-04-18T01:19:29.625Z,96185
2023-04-18T01:20:29.580Z,96186
2023-04-18T01:21:29.576Z,96186
2023-04-18T01:22:29.633Z,96181
2023-04-18T01:23:29.648Z,96181
2023-04-18T01:24:29.647Z,96185
2023-04-18T01:26:29.607Z,96178
2023-04-18T01:27:29.636Z,96178
2023-04-18T01:28:29.587Z,96178
2023-04-18T01:29:29.647Z,96174
2023-04-18T01:30:29.583Z,96175
2023-04-18T01:31:29.635Z,96175
2023-04-18T01:32:29.688Z,96168
2023-04-18T01:33:29.625Z,96168
2023-04-18T01:34:29.619Z,96167
2023-04-18T01:35:29.635Z,96168
2023-04-18T01:36:29.631Z,96170
2023-04-18T01:37:29.626Z,96164
2023-04-18T01:38:29.655Z,96161
2023-04-18T01:39:29.631Z,96165
2023-04-18T01:40:29.645Z,96166
2023-04-18T01:41:29.644Z,96166
2023-04-18T01:42:29.671Z,96159
2023-04-18T01:43:29.641Z,96159
2023-04-18T01:44:29.644Z,96156
2023-04-18T01:45:29.719Z,96159
2023-04-18T01:46:29.675Z,96157
2023-04-18T01:47:29.714Z,96161
2023-04-18T01:48:29.718Z,96160
2023-04-18T01:49:29.676Z,96158
2023-04-18T01:50:29.704Z,96161
2023-04-18T01:51:29.660Z,96161
2023-04-18T01:52:29.668Z,96158
2023-04-18T01:53:29.689Z,96156
2023-04-18T01:54:29.656Z,96155
2023-04-18T01:55:29.680Z,96155
2023-04-18T01:56:29.681Z,96155
2023-04-18T01:57:29.692Z,96153
2023-04-18T01:59:29.695Z,96154
2023-04-18T02:00:29.758Z,96154
2023-04-18T02:01:29.683Z,96159
2023-04-18T02:02:29.788Z,96153
2023-04-18T02:03:29.827Z,96155
2023-04-18T02:04:29.689Z,96149
2023-04-18T02:05:29.712Z,96152
2023-04-18T02:06:29.750Z,96149
2023-04-18T02:07:29.712Z,96149
2023-04-18T02:08:29.721Z,96149
2023-04-18T02:10:29.708Z,96145
2023-04-18T02:11:29.766Z,96147
2023-04-18T02:12:29.725Z,96144
2023-04-18T02:13:29.725Z,96148
2023-04-18T02:14:29.723Z,96148
2023-04-18T02:15:29.714Z,96139
2023-04-18T02:16:29.828Z,96146
2023-04-18T02:17:29.739Z,96140
2023-04-18T02:19:29.770Z,96138
2023-04-18T02:20:29.733Z,96138
2023-04-18T02:21:29.753Z,96139
2023-04-18T02:22:29.755Z,96139
2023-04-18T02:23:29.725Z,96140
2023-04-18T02:25:29.746Z,96138
2023-04-18T02:26:29.788Z,96140
2023-04-18T02:27:29.781Z,96140
2023-04-18T02:28:29.740Z,96141
2023-04-18T02:29:29.801Z,96137
2023-04-18T02:30:29.778Z,96137
2023-04-18T02:31:29.776Z,96137
2023-04-18T02:32:29.815Z,96143
2023-04-18T02:33:29.765Z,96143
2023-04-18T02:34:29.827Z,96144
2023-04-18T02:35:29.774Z,96134
2023-04-18T02:36:29.765Z,96134
2023-04-18T02:37:29.836Z,96140
2023-04-18T02:38:29.766Z,96140
2023-04-18T02:40:29.787Z,96134
2023-04-18T02:41:29.802Z,96134
2023-04-18T02:43:29.780Z,96136
2023-04-18T02:45:29.806Z,96128
2023-04-18T02:46:29.814Z,96128
2023-04-18T02:47:31.741Z,96133
2023-04-18T02:48:29.869Z,96132
2023-04-18T02:49:29.814Z,96129
2023-04-18T02:50:29.849Z,96131
2023-04-18T02:51:29.822Z,96131
2023-04-18T02:52:29.796Z,96132
2023-04-18T02:53:29.836Z,96131
2023-04-18T02:54:29.792Z,96132
2023-04-18T02:55:29.921Z,96125
2023-04-18T02:56:29.804Z,96125
2023-04-18T02:57:29.813Z,96130
2023-04-18T02:59:29.821Z,96129
2023-04-18T03:00:29.885Z,96131
2023-04-18T03:01:29.829Z,96134
2023-04-18T03:02:29.878Z,96128
2023-04-18T03:03:29.946Z,96130
2023-04-18T03:05:29.825Z,96128
2023-04-18T03:06:29.855Z,96128
2023-04-18T03:07:29.840Z,96128
2023-04-18T03:08:29.898Z,96127
2023-04-18T03:09:29.863Z,96127
2023-04-18T03:10:29.839Z,96125
2023-04-18T03:11:29.867Z,96123
2023-04-18T03:12:29.876Z,96123
2023-04-18T03:13:29.913Z,96122
2023-04-18T03:14:29.907Z,96124
2023-04-18T03:15:29.839Z,96124
2023-04-18T03:16:29.922Z,96120
2023-04-18T03:17:29.903Z,96120
2023-04-18T03:18:29.845Z,96120
2023-04-18T03:19:29.887Z,96119
2023-04-18T03:20:29.906Z,96119
2023-04-18T03:21:29.916Z,96117
2023-04-18T03:22:29.859Z,96117
2023-04-18T03:23:29.887Z,96119
2023-04-18T03:24:29.927Z,96122
2023-04-18T03:25:29.875Z,96118
2023-04-18T03:26:29.877Z,96121
2023-04-18T03:27:29.921Z,96122
2023-04-18T03:29:29.915Z,96122
2023-04-18T03:30:29.915Z,96122
2023-04-18T03:31:29.956Z,96123
2023-04-18T03:32:29.959Z,96120
2023-04-18T03:33:29.902Z,96120
2023-04-18T03:34:29.932Z,96123
2023-04-18T03:35:29.964Z,96123
2023-04-18T03:36:29.890Z,96121
2023-04-18T03:37:29.942Z,96119
2023-04-18T03:39:29.935Z,96117
2023-04-18T03:40:29.952Z,96121
2023-04-18T03:41:29.941Z,96118
2023-04-18T03:42:29.965Z,96117
2023-04-18T03:43:29.909Z,96119
2023-04-18T03:44:29.939Z,96122
2023-04-18T03:47:30.045Z,96117
2023-04-18T03:51:29.957Z,96115
2023-04-18T03:52:30.092Z,96112
2023-04-18T03:53:30.013Z,96118
2023-04-18T03:54:29.956Z,96116
2023-04-18T03:55:29.989Z,96110
2023-04-18T03:57:29.976Z,96110
2023-04-18T03:58:30.041Z,96117
2023-04-18T03:59:29.958Z,96117
2023-04-18T04:00:29.964Z,96113
2023-04-18T04:01:30.079Z,96114
2023-04-18T04:02:30.162Z,96114
2023-04-18T04:03:30.051Z,96113
2023-04-18T04:04:30.083Z,96113
2023-04-18T04:05:29.983Z,96113
2023-04-18T04:06:30.005Z,96114
2023-04-18T04:07:29.989Z,96114
2023-04-18T04:08:30.021Z,96115
2023-04-18T04:09:30.021Z,96115
2023-04-18T04:10:29.989Z,96117
2023-04-18T04:11:30.052Z,96119
2023-04-18T04:12:30.006Z,96119
2023-04-18T04:13:30.039Z,96118
2023-04-18T04:14:30.056Z,96119
2023-04-18T04:16:30.120Z,96116
2023-04-18T04:19:30.047Z,96127
2023-04-18T04:20:30.030Z,96127
2023-04-18T04:21:30.051Z,96122
2023-04-18T04:22:30.082Z,96123
2023-04-18T04:23:30.021Z,96123
2023-04-18T04:24:30.054Z,96126
2023-04-18T04:25:30.036Z,96122
2023-04-18T04:26:30.068Z,96123
2023-04-18T04:27:30.061Z,96123
2023-04-18T04:28:30.064Z,96123
2023-04-18T04:29:30.077Z,96119
2023-04-18T04:30:30.043Z,96119
2023-04-18T04:31:30.121Z,96121
2023-04-18T04:32:30.194Z,96122
2023-04-18T04:35:30.132Z,96121
2023-04-18T04:36:30.042Z,96121
2023-04-18T04:37:30.099Z,96124
2023-04-18T04:38:30.061Z,96126
2023-04-18T04:40:30.134Z,96123
2023-04-18T04:43:30.067Z,96126
2023-04-18T04:44:30.098Z,96124
2023-04-18T04:45:30.234Z,96130
2023-04-18T04:46:30.067Z,96130
2023-04-18T04:47:30.164Z,96130
2023-04-18T04:48:30.125Z,96131
2023-04-18T04:49:30.075Z,96131
2023-04-18T04:50:30.119Z,96135
2023-04-18T04:51:30.071Z,96135
2023-04-18T04:52:30.086Z,96134
2023-04-18T04:53:30.168Z,96135
2023-04-18T04:54:30.119Z,96135
2023-04-18T04:55:30.174Z,96134
2023-04-18T04:56:30.098Z,96131
2023-04-18T04:57:30.093Z,96133
2023-04-18T04:58:30.145Z,96132
2023-04-18T04:59:30.121Z,96136
2023-04-18T05:00:30.152Z,96133
2023-04-18T05:02:30.259Z,96137
2023-04-18T05:04:30.312Z,96138
2023-04-18T05:09:30.167Z,96139
2023-04-18T05:10:30.171Z,96137
2023-04-18T05:11:30.189Z,96139
2023-04-18T05:12:30.176Z,96138
2023-04-18T05:15:30.182Z,96141
2023-04-18T05:16:30.215Z,96139
2023-04-18T05:22:30.258Z,96140
2023-04-18T05:23:30.174Z,96143
2023-04-18T05:24:30.202Z,96141
2023-04-18T05:26:30.205Z,96141
2023-04-18T05:28:30.213Z,96140
2023-04-18T05:29:30.227Z,96140
2023-04-18T05:30:30.231Z,96142
2023-04-18T05:31:30.230Z,96142
2023-04-18T05:32:30.261Z,96143
2023-04-18T05:34:30.237Z,96146
2023-04-18T05:35:30.246Z,96146
2023-04-18T05:36:30.234Z,96146
2023-04-18T05:37:30.246Z,96149
2023-04-18T05:38:30.215Z,96150
2023-04-18T05:39:30.238Z,96151
2023-04-18T05:40:30.281Z,96148
2023-04-18T05:41:30.244Z,96150
2023-04-18T05:42:30.259Z,96150
2023-04-18T05:43:30.259Z,96150
2023-04-18T05:44:30.269Z,96153
2023-04-18T05:49:30.267Z,96151
2023-04-18T05:50:30.309Z,96151
2023-04-18T05:52:30.280Z,96152
2023-04-18T05:53:30.283Z,96154
2023-04-18T05:54:30.292Z,96153
2023-04-18T05:55:30.300Z,96154
2023-04-18T05:56:30.257Z,96154
2023-04-18T05:57:30.279Z,96155
2023-04-18T05:58:30.327Z,96154
2023-04-18T05:59:30.266Z,96149
2023-04-18T06:01:30.332Z,96154
2023-04-18T06:02:30.405Z,96151
2023-04-18T06:03:30.436Z,96154
2023-04-18T06:05:30.615Z,96154
2023-04-18T06:07:30.304Z,96156
2023-04-18T06:08:30.327Z,96155
2023-04-18T06:09:30.326Z,96159
2023-04-18T06:10:30.444Z,96154
2023-04-18T06:11:30.330Z,96156
2023-04-18T06:12:30.315Z,96154
2023-04-18T06:13:30.313Z,96158
2023-04-18T06:14:30.366Z,96159
2023-04-18T06:15:30.322Z,96160
2023-04-18T06:16:30.393Z,96161
2023-04-18T06:17:30.348Z,96161
2023-04-18T06:18:30.348Z,96163
2023-04-18T06:19:30.366Z,96162
2023-04-18T06:20:30.486Z,96163
2023-04-18T06:21:30.397Z,96164
2023-04-18T06:22:30.397Z,96168
2023-04-18T06:24:31.329Z,96164
2023-04-18T06:26:30.337Z,96164
2023-04-18T06:27:31.419Z,96167
2023-04-18T06:28:30.355Z,96167
2023-04-18T06:29:30.522Z,96169
2023-04-18T06:30:30.411Z,96168
2023-04-18T06:32:30.408Z,96167
2023-04-18T06:33:30.352Z,96167
2023-04-18T06:34:30.394Z,96166
2023-04-18T06:35:30.420Z,96164
2023-04-18T06:36:30.384Z,96164
2023-04-18T06:38:30.374Z,96162
2023-04-18T06:39:30.371Z,96164
2023-04-18T06:40:30.431Z,96167
2023-04-18T06:41:30.375Z,96165
2023-04-18T06:42:30.410Z,96164
2023-04-18T06:43:30.379Z,96167
2023-04-18T06:44:30.400Z,96167
2023-04-18T06:45:30.461Z,96167
2023-04-18T06:47:30.501Z,96166
2023-04-18T06:48:30.418Z,96166
2023-04-18T06:50:30.487Z,96167
2023-04-18T06:52:30.412Z,96167
2023-04-18T06:53:30.442Z,96170
2023-04-18T06:54:30.426Z,96171
2023-04-18T06:55:30.504Z,96172
2023-04-18T06:56:30.387Z,96175
2023-04-18T06:57:30.456Z,96173
2023-04-18T06:58:30.451Z,96173
2023-04-18T07:01:30.483Z,96173
2023-04-18T07:02:30.538Z,96172
2023-04-18T07:04:30.504Z,96172
2023-04-18T07:06:30.450Z,96171
2023-04-18T07:07:30.438Z,96172
2023-04-18T07:08:30.463Z,96171
2023-04-18T07:10:30.465Z,96174
2023-04-18T07:12:30.449Z,96174
2023-04-18T07:13:30.436Z,96176
2023-04-18T07:14:31.750Z,96177
2023-04-18T07:15:30.454Z,96174
2023-04-18T07:16:30.524Z,96176
2023-04-18T07:17:30.487Z,96174
2023-04-18T07:18:38.040Z,96170
2023-04-18T07:19:30.502Z,96172
2023-04-18T07:20:30.495Z,96172
2023-04-18T07:21:30.517Z,96167
2023-04-18T07:22:30.524Z,96167
2023-04-18T07:23:30.502Z,96170
2023-04-18T07:24:30.543Z,96171
2023-04-18T07:25:30.484Z,96169
2023-04-18T07:26:30.506Z,96169
2023-04-18T07:27:30.545Z,96171
2023-04-18T07:28:30.490Z,96171
2023-04-18T07:29:30.533Z,96175
2023-04-18T07:30:30.486Z,96175
2023-04-18T07:31:30.594Z,96175
2023-04-18T07:32:30.557Z,96172
2023-04-18T07:33:30.502Z,96176
2023-04-18T07:34:30.548Z,96173
2023-04-18T07:35:30.552Z,96177
2023-04-18T07:36:30.532Z,96177
2023-04-18T07:37:30.537Z,96174
2023-04-18T07:38:30.548Z,96176
2023-04-18T07:39:30.546Z,96178
2023-04-18T07:40:30.549Z,96178
2023-04-18T07:41:30.520Z,96181
2023-04-18T07:42:30.557Z,96181
2023-04-18T07:43:30.596Z,96179
2023-04-18T07:44:30.560Z,96179
2023-04-18T07:45:30.566Z,96181
2023-04-18T07:46:30.610Z,96178
2023-04-18T07:47:31.829Z,96180
2023-04-18T07:48:30.577Z,96179
2023-04-18T07:49:30.565Z,96181
2023-04-18T07:50:30.570Z,96184
2023-04-18T07:51:30.545Z,96182
2023-04-18T07:52:30.548Z,96183
2023-04-18T07:53:30.591Z,96182
2023-04-18T07:54:30.592Z,96180
2023-04-18T07:55:30.580Z,96185
2023-04-18T07:56:30.599Z,96188
2023-04-18T07:58:30.623Z,96187
2023-04-18T07:59:30.601Z,96184
2023-04-18T08:00:30.590Z,96187
2023-04-18T08:01:30.630Z,96188
2023-04-18T08:02:30.695Z,96191
2023-04-18T08:03:30.761Z,96196
2023-04-18T08:04:30.862Z,96193
2023-04-18T08:05:30.722Z,96194
2023-04-18T08:06:30.615Z,96187
2023-04-18T08:07:30.615Z,96192
2023-04-18T08:08:30.641Z,96197
2023-04-18T08:09:30.632Z,96194
2023-04-18T08:10:30.634Z,96194
2023-04-18T08:11:30.661Z,96195
2023-04-18T08:12:30.607Z,96194
2023-04-18T08:13:30.601Z,96194
2023-04-18T08:14:30.637Z,96196
2023-04-18T08:15:30.638Z,96196
2023-04-18T08:16:30.692Z,96189
2023-04-18T08:17:30.642Z,96187
2023-04-18T08:18:30.623Z,96188
2023-04-18T08:19:30.651Z,96190
2023-04-18T08:20:30.656Z,96186
2023-04-18T08:21:30.646Z,96192
2023-04-18T08:22:30.685Z,96194
2023-04-18T08:23:30.655Z,96195
2023-04-18T08:24:30.689Z,96193
2023-04-18T08:25:30.655Z,96193
2023-04-18T08:26:30.658Z,96193
2023-04-18T08:27:30.689Z,96193
2023-04-18T08:28:30.673Z,96188
2023-04-18T08:29:30.670Z,96193
2023-04-18T08:30:30.642Z,96195
2023-04-18T08:31:30.692Z,96194
2023-04-18T08:32:30.761Z,96189
2023-04-18T08:33:30.641Z,96189
2023-04-18T08:34:30.705Z,96190
2023-04-18T08:35:30.708Z,96195
2023-04-18T08:36:30.719Z,96195
2023-04-18T08:37:30.716Z,96193
2023-04-18T08:38:30.709Z,96190
2023-04-18T08:39:30.701Z,96190
2023-04-18T08:40:30.787Z,96196
2023-04-18T08:41:30.675Z,96193
2023-04-18T08:42:30.727Z,96199
2023-04-18T08:43:30.663Z,96199
2023-04-18T08:44:30.678Z,96195
2023-04-18T08:45:30.738Z,96198
2023-04-18T08:47:30.722Z,96199
2023-04-18T08:48:30.766Z,96197
2023-04-18T08:50:30.752Z,96199
2023-04-18T08:51:30.697Z,96200
2023-04-18T08:53:30.992Z,96199
2023-04-18T08:54:30.711Z,96200
2023-04-18T08:55:30.711Z,96202
2023-04-18T08:59:30.767Z,96201
2023-04-18T09:01:30.802Z,96202
2023-04-18T09:02:30.801Z,96202
2023-04-18T09:03:30.853Z,96202
2023-04-18T09:05:30.732Z,96202
2023-04-18T09:06:30.751Z,96203
2023-04-18T09:07:30.754Z,96201
2023-04-18T09:08:30.770Z,96204
2023-04-18T09:09:30.739Z,96201
2023-04-18T09:10:30.771Z,96201
2023-04-18T09:11:30.796Z,96204
2023-04-18T09:12:30.746Z,96202
2023-04-18T09:13:30.800Z,96201
2023-04-18T09:14:30.809Z,96200
2023-04-18T09:15:30.759Z,96201
2023-04-18T09:16:30.883Z,96199
2023-04-18T09:17:30.811Z,96200
2023-04-18T09:18:30.794Z,96198
2023-04-18T09:19:30.816Z,96198
2023-04-18T09:20:30.820Z,96199
2023-04-18T09:23:30.814Z,96192
2023-04-18T09:24:30.830Z,96197
2023-04-18T09:25:30.777Z,96194
2023-04-18T09:26:30.787Z,96198
2023-04-18T09:27:30.827Z,96194
2023-04-18T09:28:30.825Z,96193
2023-04-18T09:29:30.849Z,96190
2023-04-18T09:30:30.828Z,96190
2023-04-18T09:31:30.925Z,96190
2023-04-18T09:34:30.876Z,96197
2023-04-18T09:36:30.874Z,96192
2023-04-18T09:37:30.850Z,96196
2023-04-18T09:38:30.839Z,96196
2023-04-18T09:39:30.824Z,96196
2023-04-18T09:40:30.878Z,96196
2023-04-18T09:41:30.855Z,96198
2023-04-18T09:44:30.835Z,96206
2023-04-18T09:45:30.902Z,96206
2023-04-18T09:46:30.890Z,96203
2023-04-18T09:47:30.903Z,96206
2023-04-18T09:49:30.859Z,96205
2023-04-18T09:50:30.922Z,96209
2023-04-18T09:51:30.862Z,96206
2023-04-18T09:52:30.853Z,96206
2023-04-18T09:53:30.898Z,96204
2023-04-18T09:54:30.852Z,96204
2023-04-18T09:55:30.891Z,96206
2023-04-18T09:56:30.859Z,96206
2023-04-18T09:57:30.898Z,96204
2023-04-18T09:58:30.920Z,96206
2023-04-18T09:59:30.892Z,96204
2023-04-18T10:00:30.869Z,96207
2023-04-18T10:01:31.050Z,96210
2023-04-18T10:02:31.047Z,96210
2023-04-18T10:03:31.063Z,96205
2023-04-18T10:04:31.040Z,96205
2023-04-18T10:05:30.915Z,96206
2023-04-18T10:06:30.932Z,96206
2023-04-18T10:08:30.922Z,96203
2023-04-18T10:09:30.884Z,96203
2023-04-18T10:10:30.902Z,96204
2023-04-18T10:11:30.984Z,96212
2023-04-18T10:12:30.910Z,96205
2023-04-18T10:13:30.943Z,96201
2023-04-18T10:14:30.965Z,96205
2023-04-18T10:15:30.985Z,96204
2023-04-18T10:16:31.165Z,96205
2023-04-18T10:17:30.996Z,96205
2023-04-18T10:18:30.922Z,96213
2023-04-18T10:19:30.968Z,96212
2023-04-18T10:20:30.932Z,96206
2023-04-18T10:21:30.946Z,96213
2023-04-18T10:22:30.940Z,96213
2023-04-18T10:23:30.930Z,96213
2023-04-18T10:24:30.982Z,96206
2023-04-18T10:25:30.960Z,96207
2023-04-18T10:26:30.956Z,96206
2023-04-18T10:27:30.978Z,96203
2023-04-18T10:28:30.941Z,96205
2023-04-18T10:29:30.976Z,96205
2023-04-18T10:30:30.940Z,96205
2023-04-18T10:31:31.012Z,96210
2023-04-18T10:32:31.028Z,96210
2023-04-18T10:35:30.974Z,96208
2023-04-18T10:36:30.954Z,96208
2023-04-18T10:37:31.011Z,96211
2023-04-18T10:38:30.958Z,96207
2023-04-18T10:39:30.993Z,96206
2023-04-18T10:40:31.020Z,96205
2023-04-18T10:41:31.040Z,96205
2023-04-18T10:42:31.031Z,96204
2023-04-18T10:43:31.018Z,96207
2023-04-18T10:44:30.989Z,96207
2023-04-18T10:45:31.035Z,96201
2023-04-18T10:46:32.874Z,96199
2023-04-18T10:47:31.374Z,96197
2023-04-18T10:48:31.036Z,96197
2023-04-18T10:49:32.783Z,96197
2023-04-18T10:50:30.984Z,96197
2023-04-18T10:51:31.016Z,96196
2023-04-18T10:52:30.994Z,96197
2023-04-18T10:53:31.054Z,96199
2023-04-18T10:54:31.013Z,96196
2023-04-18T10:55:31.045Z,96197
2023-04-18T10:56:31.015Z,96197
2023-04-18T10:57:31.043Z,96192
2023-04-18T10:58:31.078Z,96192
2023-04-18T10:59:31.022Z,96189
2023-04-18T11:00:31.116Z,96187
2023-04-18T11:01:32.747Z,96191
2023-04-18T11:02:31.117Z,96191
2023-04-18T11:04:31.180Z,96190
2023-04-18T11:05:31.063Z,96185
2023-04-18T11:06:31.082Z,96186
2023-04-18T11:07:31.031Z,96187
2023-04-18T11:08:31.103Z,96187
2023-04-18T11:09:31.048Z,96185
2023-04-18T11:10:31.091Z,96189
2023-04-18T11:11:31.091Z,96187
2023-04-18T11:12:31.061Z,96190
2023-04-18T11:13:31.098Z,96186
2023-04-18T11:14:31.069Z,96183
2023-04-18T11:15:31.281Z,96183
2023-04-18T11:16:31.162Z,96185
2023-04-18T11:17:31.107Z,96185
2023-04-18T11:18:31.094Z,96182
2023-04-18T11:19:31.105Z,96180
2023-04-18T11:20:31.110Z,96182
2023-04-18T11:21:31.123Z,96180
2023-04-18T11:22:31.095Z,96176
2023-04-18T11:23:31.103Z,96180
2023-04-18T11:24:31.155Z,96174
2023-04-18T11:25:31.097Z,96178
2023-04-18T11:26:31.116Z,96179
2023-04-18T11:27:31.160Z,96177
2023-04-18T11:28:31.141Z,96179
2023-04-18T11:29:31.132Z,96186
2023-04-18T11:31:31.124Z,96183
2023-04-18T11:32:31.314Z,96182
2023-04-18T11:33:31.148Z,96186
2023-04-18T11:34:31.172Z,96183
2023-04-18T11:35:31.199Z,96183
2023-04-18T11:36:31.124Z,96186
2023-04-18T11:37:31.154Z,96185
2023-04-18T11:38:31.144Z,96184
2023-04-18T11:39:31.123Z,96181
2023-04-18T11:40:31.164Z,96179
2023-04-18T11:41:31.148Z,96179
2023-04-18T11:42:31.163Z,96183
2023-04-18T11:43:31.150Z,96183
2023-04-18T11:44:31.128Z,96184
2023-04-18T11:45:31.203Z,96183
2023-04-18T11:46:31.247Z,96180
2023-04-18T11:47:31.189Z,96183
2023-04-18T11:48:31.164Z,96183
2023-04-18T11:49:31.160Z,96185
2023-04-18T11:50:31.220Z,96182
2023-04-18T11:51:31.183Z,96183
2023-04-18T11:52:31.194Z,96183
2023-04-18T11:55:31.242Z,96182
2023-04-18T11:56:31.165Z,96182
2023-04-18T11:57:31.172Z,96176
2023-04-18T11:58:31.241Z,96181
2023-04-18T11:59:31.163Z,96180
2023-04-18T12:00:31.203Z,96182
2023-04-18T12:01:31.245Z,96185
2023-04-18T12:02:31.276Z,96180
2023-04-18T12:03:31.434Z,96181
2023-04-18T12:04:31.406Z,96182
2023-04-18T12:07:31.218Z,96177
2023-04-18T12:09:31.193Z,96181
2023-04-18T12:10:31.231Z,96184
2023-04-18T12:11:31.242Z,96189
2023-04-18T12:12:31.243Z,96189
2023-04-18T12:13:31.244Z,96186
2023-04-18T12:14:31.272Z,96188
2023-04-18T12:16:31.363Z,96187
2023-04-18T12:17:31.309Z,96188
2023-04-18T12:18:31.254Z,96194
2023-04-18T12:19:31.258Z,96184
2023-04-18T12:20:31.229Z,96185
2023-04-18T12:21:31.258Z,96190
2023-04-18T12:22:31.282Z,96186
2023-04-18T12:23:31.271Z,96189
2023-04-18T12:24:31.268Z,96183
2023-04-18T12:25:31.256Z,96189
2023-04-18T12:26:31.258Z,96183
2023-04-18T12:27:31.296Z,96180
2023-04-18T12:28:31.249Z,96181
2023-04-18T12:29:31.298Z,96179
2023-04-18T12:30:31.253Z,96191
2023-04-18T12:31:31.309Z,96180
2023-04-18T12:32:31.369Z,96186
2023-04-18T12:33:31.292Z,96186
2023-04-18T12:34:31.265Z,96183
2023-04-18T12:35:31.332Z,96182
2023-04-18T12:36:31.273Z,96185
2023-04-18T12:37:31.351Z,96185
2023-04-18T12:38:31.270Z,96181
2023-04-18T12:39:31.282Z,96184
2023-04-18T12:40:31.301Z,96176
2023-04-18T12:41:31.288Z,96180
2023-04-18T12:42:31.305Z,96180
2023-04-18T12:43:31.339Z,96182
2023-04-18T12:44:31.308Z,96178
2023-04-18T12:45:31.329Z,96174
2023-04-18T12:46:31.336Z,96182
2023-04-18T12:47:31.312Z,96182
2023-04-18T12:48:31.342Z,96179
2023-04-18T12:49:31.296Z,96179
2023-04-18T12:50:31.330Z,96175
2023-04-18T12:51:31.337Z,96176
2023-04-18T12:52:31.302Z,96176
2023-04-18T12:53:31.379Z,96173
2023-04-18T12:54:31.304Z,96174
2023-04-18T12:55:31.324Z,96174
2023-04-18T12:56:31.387Z,96176
2023-04-18T12:57:31.956Z,96175
2023-04-18T12:58:31.349Z,96181
2023-04-18T12:59:31.353Z,96179
2023-04-18T13:00:31.434Z,96182
2023-04-18T13:01:31.389Z,96178
2023-04-18T13:02:31.517Z,96176
2023-04-18T13:03:31.539Z,96182
2023-04-18T13:04:31.845Z,96176
2023-04-18T13:05:33.455Z,96179
2023-04-18T13:06:31.416Z,96176
2023-04-18T13:07:31.372Z,96172
2023-04-18T13:08:31.385Z,96171
2023-04-18T13:09:31.439Z,96170
2023-04-18T13:10:31.382Z,96170
2023-04-18T13:11:31.389Z,96169
2023-04-18T13:12:31.403Z,96168
2023-04-18T13:13:31.906Z,96168
2023-04-18T13:14:31.415Z,96170
2023-04-18T13:17:31.449Z,96174
2023-04-18T13:18:31.369Z,96164
2023-04-18T13:19:31.411Z,96166
2023-04-18T13:20:31.428Z,96163
2023-04-18T13:21:31.393Z,96163
2023-04-18T13:22:31.444Z,96161
2023-04-18T13:24:31.449Z,96163
2023-04-18T13:26:31.425Z,96160
2023-04-18T13:27:31.458Z,96160
2023-04-18T13:28:31.399Z,96160
2023-04-18T13:29:31.455Z,96158
2023-04-18T13:30:31.426Z,96159
2023-04-18T13:31:31.476Z,96166
2023-04-18T13:32:31.512Z,96164
2023-04-18T13:33:31.408Z,96164
2023-04-18T13:34:31.433Z,96165
2023-04-18T13:35:31.461Z,96165
2023-04-18T13:36:31.443Z,96165
2023-04-18T13:37:31.516Z,96158
2023-04-18T13:38:31.421Z,96158
2023-04-18T13:39:31.448Z,96154
2023-04-18T13:40:31.485Z,96152
2023-04-18T13:41:31.441Z,96150
2023-04-18T13:42:31.463Z,96149
2023-04-18T13:43:31.505Z,96154
2023-04-18T13:44:31.450Z,96153
2023-04-18T13:45:31.526Z,96153
2023-04-18T13:46:31.531Z,96155
2023-04-18T13:47:31.497Z,96148
2023-04-18T13:48:31.515Z,96149
2023-04-18T13:49:31.463Z,96147
2023-04-18T13:50:31.461Z,96150
2023-04-18T13:51:31.514Z,96147
2023-04-18T13:52:31.498Z,96148
2023-04-18T13:53:31.510Z,96147
2023-04-18T13:54:31.496Z,96155
2023-04-18T13:55:31.507Z,96154
2023-04-18T13:56:31.541Z,96148
2023-04-18T13:57:31.484Z,96153
2023-04-18T13:58:31.514Z,96152
2023-04-18T13:59:31.481Z,96150
2023-04-18T14:00:31.539Z,96151
2023-04-18T14:01:31.620Z,96155
2023-04-18T14:02:31.669Z,96156
2023-04-18T14:03:31.612Z,96153
2023-04-18T14:04:31.696Z,96154
2023-04-18T14:05:31.493Z,96156
2023-04-18T14:06:31.553Z,96154
2023-04-18T14:07:31.525Z,96154
2023-04-18T14:08:31.524Z,96154
2023-04-18T14:09:31.569Z,96154
2023-04-18T14:10:31.532Z,96157
2023-04-18T14:11:31.563Z,96148
2023-04-18T14:12:31.589Z,96151
2023-04-18T14:13:31.561Z,96152
2023-04-18T14:14:31.555Z,96151
2023-04-18T14:15:31.619Z,96151
2023-04-18T14:16:32.497Z,96146
2023-04-18T14:17:31.597Z,96145
2023-04-18T14:18:31.528Z,96145
2023-04-18T14:19:31.591Z,96148
2023-04-18T14:20:31.557Z,96148
2023-04-18T14:21:31.541Z,96147
2023-04-18T14:22:31.575Z,96146
2023-04-18T14:23:31.529Z,96146
2023-04-18T14:24:31.544Z,96145
2023-04-18T14:25:31.594Z,96142
2023-04-18T14:26:31.586Z,96142
2023-04-18T14:27:31.617Z,96144
2023-04-18T14:28:31.593Z,96139
2023-04-18T14:29:31.583Z,96139
2023-04-18T14:30:31.620Z,96139
2023-04-18T14:31:31.632Z,96138
2023-04-18T14:32:31.679Z,96139
2023-04-18T14:33:31.612Z,96137
2023-04-18T14:34:33.982Z,96141
2023-04-18T14:35:31.606Z,96143